Time;durP1;ratioP1;P1;durP2;ratioP2;P2;SDS_P1;SDS_P2;PMS_P1;PMS_P2;Temp;Humidity;BMP_temperature;BMP_pressure;BME280_temperature;BME280_humidity;BME280_pressure;Samples;Min_cycle;Max_cycle;Signal;HPM_P1;HPM_P2
2022/08/21 00:01:27;;;;;;;6.00;3.40;;;18.80;71.60;;;;;;5056239;28;20025;-47
2022/08/21 00:03:52;;;;;;;9.50;3.83;;;18.80;71.80;;;;;;5056584;28;20109;-47
2022/08/21 00:06:19;;;;;;;6.18;3.28;;;18.80;71.60;;;;;;5056309;28;20056;-49
2022/08/21 00:08:45;;;;;;;7.50;2.53;;;18.80;71.60;;;;;;5056339;28;20021;-48
2022/08/21 00:11:14;;;;;;;10.52;4.28;;;18.70;71.80;;;;;;5056001;28;20381;-46
2022/08/21 00:13:41;;;;;;;9.18;3.58;;;18.70;71.90;;;;;;5056106;28;20473;-47
2022/08/21 00:16:07;;;;;;;10.98;3.65;;;18.60;72.40;;;;;;5056238;28;20534;-48
2022/08/21 00:18:32;;;;;;;12.85;3.40;;;18.60;72.40;;;;;;5055792;28;20108;-47
2022/08/21 00:20:58;;;;;;;16.15;4.63;;;18.70;72.50;;;;;;5056192;28;20385;-48
2022/08/21 00:23:24;;;;;;;12.25;3.90;;;18.60;72.70;;;;;;5056142;28;20033;-48
2022/08/21 00:25:49;;;;;;;9.10;3.15;;;18.60;72.70;;;;;;5054532;28;20025;-47
2022/08/21 00:28:15;;;;;;;6.78;3.90;;;18.40;73.00;;;;;;5056040;28;20103;-46
2022/08/21 00:30:42;;;;;;;9.15;3.13;;;18.30;73.40;;;;;;5055969;28;20021;-47
2022/08/21 00:33:09;;;;;;;11.00;3.63;;;18.30;73.40;;;;;;5055644;28;20036;-47
2022/08/21 00:35:37;;;;;;;6.53;3.22;;;18.30;73.70;;;;;;5055569;28;20025;-47
2022/08/21 00:38:05;;;;;;;7.88;3.78;;;18.30;73.90;;;;;;5055440;28;20053;-47
2022/08/21 00:40:36;;;;;;;11.75;3.28;;;18.30;74.10;;;;;;5055624;28;20024;-50
2022/08/21 00:43:04;;;;;;;5.53;3.15;;;18.30;74.20;;;;;;5055614;28;20070;-51
2022/08/21 00:45:30;;;;;;;9.85;3.67;;;18.30;74.30;;;;;;5054202;28;20037;-47
2022/08/21 00:47:56;;;;;;;8.68;4.00;;;18.30;74.50;;;;;;5055748;28;20044;-48
2022/08/21 00:50:25;;;;;;;7.63;3.28;;;18.30;74.60;;;;;;5055189;28;20017;-47
2022/08/21 00:52:51;;;;;;;6.57;3.15;;;18.30;74.60;;;;;;5055081;28;20029;-47
2022/08/21 00:55:19;;;;;;;57.45;32.40;;;18.30;74.50;;;;;;5055342;28;20413;-45
2022/08/21 00:57:49;;;;;;;10.32;5.38;;;18.40;74.40;;;;;;5053770;28;20385;-48
2022/08/21 01:00:23;;;;;;;5.90;3.63;;;18.40;74.40;;;;;;5054829;28;20029;-45
2022/08/21 01:02:49;;;;;;;9.95;3.60;;;18.40;74.60;;;;;;5054605;28;20045;-48
2022/08/21 01:05:16;;;;;;;9.45;3.60;;;18.40;74.60;;;;;;5054992;28;20086;-46
2022/08/21 01:07:44;;;;;;;8.75;2.67;;;18.40;74.50;;;;;;5054592;28;20025;-49
2022/08/21 01:10:10;;;;;;;11.10;2.90;;;18.40;74.60;;;;;;5054902;28;20071;-46
2022/08/21 01:12:36;;;;;;;8.50;3.40;;;18.30;74.90;;;;;;5054542;28;20107;-53
2022/08/21 01:15:04;;;;;;;8.27;3.55;;;18.20;75.30;;;;;;5055034;28;20116;-46
2022/08/21 01:17:31;;;;;;;7.38;3.25;;;18.10;75.70;;;;;;5053337;28;20416;-46
2022/08/21 01:20:01;;;;;;;5.78;3.30;;;18.00;76.10;;;;;;5053234;28;20047;-46
2022/08/21 01:22:27;;;;;;;5.72;3.17;;;17.80;76.60;;;;;;5054494;28;20060;-45
2022/08/21 01:24:52;;;;;;;4.90;3.03;;;17.80;76.80;;;;;;5054503;28;20059;-46
2022/08/21 01:27:18;;;;;;;6.93;3.70;;;17.70;77.10;;;;;;5054498;28;20151;-45
2022/08/21 01:30:03;;;;;;;7.03;3.67;;;17.60;77.50;;;;;;5053178;28;20491;-48
2022/08/21 01:32:30;;;;;;;9.77;4.07;;;17.50;77.80;;;;;;5054833;28;20056;-47
2022/08/21 01:34:56;;;;;;;6.32;4.47;;;17.50;77.90;;;;;;5054258;28;20033;-48
2022/08/21 01:37:22;;;;;;;7.57;3.10;;;17.50;77.90;;;;;;5054864;28;20039;-47
2022/08/21 01:39:48;;;;;;;11.82;3.72;;;17.60;77.90;;;;;;5052951;28;20086;-46
2022/08/21 01:42:14;;;;;;;5.70;3.33;;;17.50;78.10;;;;;;5054062;28;20037;-46
2022/08/21 01:44:40;;;;;;;9.35;3.42;;;17.50;78.40;;;;;;5054274;28;20099;-48
2022/08/21 01:47:09;;;;;;;7.03;3.33;;;17.40;78.40;;;;;;5054061;28;20017;-47
2022/08/21 01:49:36;;;;;;;20.05;4.03;;;17.40;78.50;;;;;;5054025;28;20473;-47
2022/08/21 01:52:03;;;;;;;8.32;3.20;;;17.40;78.50;;;;;;5054099;28;20024;-47
2022/08/21 01:54:29;;;;;;;7.10;3.55;;;17.40;78.70;;;;;;5054111;28;20150;-47
2022/08/21 01:56:56;;;;;;;6.78;3.47;;;17.40;78.50;;;;;;5054064;28;20116;-48
2022/08/21 01:59:23;;;;;;;7.82;3.67;;;17.40;78.60;;;;;;5052629;28;20481;-49
2022/08/21 02:01:49;;;;;;;4.65;3.17;;;17.30;78.90;;;;;;5054001;28;20393;-46
2022/08/21 02:04:15;;;;;;;10.10;3.65;;;17.30;78.80;;;;;;5053903;28;20029;-46
2022/08/21 02:06:42;;;;;;;7.22;3.30;;;17.40;78.80;;;;;;5053955;28;20020;-48
2022/08/21 02:09:10;;;;;;;4.38;3.22;;;17.30;78.80;;;;;;5053854;28;20115;-46
2022/08/21 02:11:40;;;;;;;8.27;3.85;;;17.30;79.00;;;;;;5053190;28;20017;-47
2022/08/21 02:14:14;;;;;;;11.80;5.13;;;17.30;79.20;;;;;;5053775;28;20025;-47
2022/08/21 02:16:40;;;;;;;7.35;4.05;;;17.20;79.40;;;;;;5053819;28;20049;-46
2022/08/21 02:19:06;;;;;;;7.68;3.28;;;17.20;79.60;;;;;;5052607;28;20025;-48
2022/08/21 02:21:32;;;;;;;8.15;4.00;;;17.10;79.70;;;;;;5053630;28;20036;-46
2022/08/21 02:23:58;;;;;;;6.55;3.53;;;17.00;80.00;;;;;;5053412;28;20083;-46
2022/08/21 02:26:24;;;;;;;10.10;4.20;;;17.00;80.10;;;;;;5053348;28;20051;-45
2022/08/21 02:28:50;;;;;;;9.63;4.80;;;16.90;80.30;;;;;;5053722;28;20025;-48
2022/08/21 02:31:16;;;;;;;9.00;4.93;;;16.80;80.60;;;;;;5053746;28;20025;-46
2022/08/21 02:33:41;;;;;;;9.18;4.30;;;16.80;80.70;;;;;;5053345;28;20111;-46
2022/08/21 02:36:09;;;;;;;13.18;5.90;;;16.80;80.80;;;;;;5054038;28;20469;-46
2022/08/21 02:38:39;;;;;;;7.70;4.38;;;16.80;80.80;;;;;;5053095;28;20071;-46
2022/08/21 02:41:07;;;;;;;7.68;4.10;;;16.70;80.90;;;;;;5052116;28;20032;-47
2022/08/21 02:43:33;;;;;;;11.85;5.20;;;16.70;81.00;;;;;;5053025;28;20043;-47
2022/08/21 02:45:59;;;;;;;11.55;4.18;;;16.80;81.10;;;;;;5051967;28;20025;-45
2022/08/21 02:48:30;;;;;;;7.10;3.78;;;16.70;80.90;;;;;;5053240;28;20021;-46
2022/08/21 02:51:00;;;;;;;4.60;3.00;;;16.70;81.10;;;;;;5053400;28;20029;-46
2022/08/21 02:53:26;;;;;;;7.53;4.13;;;16.70;81.00;;;;;;5053371;28;20357;-46
2022/08/21 02:55:53;;;;;;;7.97;4.25;;;16.70;81.10;;;;;;5053064;28;20116;-46
2022/08/21 02:58:23;;;;;;;10.18;4.47;;;16.70;81.00;;;;;;5052023;28;20032;-46
2022/08/21 03:00:50;;;;;;;6.03;3.85;;;16.70;81.20;;;;;;5053488;28;20028;-46
2022/08/21 03:03:17;;;;;;;9.30;4.07;;;16.70;81.10;;;;;;5052777;28;20041;-46
2022/08/21 03:05:43;;;;;;;4.95;3.55;;;16.70;81.20;;;;;;5053052;28;20083;-46
2022/08/21 03:08:11;;;;;;;7.68;3.47;;;16.70;81.20;;;;;;5053165;28;20374;-45
2022/08/21 03:10:43;;;;;;;7.32;3.50;;;16.70;81.00;;;;;;5053175;28;20027;-45
2022/08/21 03:13:10;;;;;;;8.40;4.50;;;16.80;81.00;;;;;;5053016;28;20107;-45
2022/08/21 03:15:36;;;;;;;8.20;3.15;;;16.80;80.80;;;;;;5053096;28;20029;-45
2022/08/21 03:18:03;;;;;;;4.97;3.53;;;16.80;80.90;;;;;;5053525;28;20058;-45
2022/08/21 03:20:29;;;;;;;6.93;4.20;;;16.80;80.90;;;;;;5053353;28;20033;-48
2022/08/21 03:22:55;;;;;;;9.55;4.55;;;16.80;80.70;;;;;;5052948;28;20029;-46
2022/08/21 03:25:24;;;;;;;8.45;4.03;;;16.70;80.80;;;;;;5056817;28;20024;-46
2022/08/21 03:27:50;;;;;;;10.38;3.53;;;16.80;80.70;;;;;;5057364;28;20059;-46
2022/08/21 03:30:18;;;;;;;8.82;3.22;;;16.80;80.60;;;;;;5057219;28;20087;-46
2022/08/21 03:32:44;;;;;;;6.93;3.90;;;16.80;80.60;;;;;;5056819;28;20028;-46
2022/08/21 03:35:10;;;;;;;6.50;4.18;;;16.70;80.90;;;;;;5056958;28;20554;-45
2022/08/21 03:37:36;;;;;;;9.27;3.40;;;16.70;81.20;;;;;;5057349;28;20024;-48
2022/08/21 03:40:04;;;;;;;5.00;3.72;;;16.70;81.10;;;;;;5057059;28;20497;-45
2022/08/21 03:42:30;;;;;;;9.52;5.43;;;16.70;81.20;;;;;;5057050;28;20060;-45
2022/08/21 03:44:56;;;;;;;6.85;4.03;;;16.70;81.00;;;;;;5056748;28;20048;-45
2022/08/21 03:47:22;;;;;;;6.95;4.57;;;16.70;81.00;;;;;;5056547;28;20112;-45
2022/08/21 03:49:48;;;;;;;7.88;3.45;;;16.60;81.20;;;;;;5055292;28;20063;-45
2022/08/21 03:52:15;;;;;;;8.50;3.97;;;16.50;81.60;;;;;;5057266;28;20526;-47
2022/08/21 03:54:41;;;;;;;8.80;5.07;;;16.50;81.80;;;;;;5055120;28;20052;-47
2022/08/21 03:57:08;;;;;;;8.07;4.40;;;16.40;81.90;;;;;;5056485;28;20423;-45
2022/08/21 03:59:34;;;;;;;7.95;4.03;;;16.40;82.20;;;;;;5056263;28;20017;-46
2022/08/21 04:02:01;;;;;;;9.43;4.20;;;16.30;82.30;;;;;;5056026;28;20049;-46
2022/08/21 04:04:28;;;;;;;5.97;3.88;;;16.30;82.50;;;;;;5056221;28;20032;-46
2022/08/21 04:06:55;;;;;;;6.75;4.07;;;16.30;82.50;;;;;;5056089;28;20538;-47
2022/08/21 04:09:20;;;;;;;9.50;3.80;;;16.30;82.60;;;;;;5055429;28;20021;-45
2022/08/21 19:00:46;;;;;;;2.70;1.40;;;22.20;47.10;;;;;;5070931;28;20378;-39
2022/08/21 19:03:14;;;;;;;5.07;1.83;;;22.20;47.30;;;;;;5069611;28;20377;-40
2022/08/21 19:05:43;;;;;;;3.55;1.63;;;22.20;47.30;;;;;;5069087;28;20025;-38
2022/08/21 19:08:11;;;;;;;7.25;2.88;;;22.20;47.40;;;;;;5070713;28;20020;-40
2022/08/21 19:10:39;;;;;;;5.75;1.55;;;22.30;47.50;;;;;;5071009;28;20025;-38
2022/08/21 19:13:05;;;;;;;4.22;1.77;;;22.30;47.60;;;;;;5069431;28;20545;-38
2022/08/21 19:15:33;;;;;;;3.22;1.17;;;22.20;48.00;;;;;;5068820;28;20020;-38
2022/08/21 19:17:59;;;;;;;2.55;1.10;;;22.20;48.30;;;;;;5068919;28;20025;-38
2022/08/21 19:20:33;;;;;;;2.05;1.02;;;22.20;48.20;;;;;;5052166;28;20031;-38
2022/08/21 19:22:59;;;;;;;5.22;1.70;;;22.10;48.60;;;;;;5069430;28;20044;-39
2022/08/21 19:25:26;;;;;;;6.38;1.80;;;22.00;48.80;;;;;;5069650;28;20101;-38
2022/08/21 19:27:52;;;;;;;3.20;2.03;;;21.90;49.10;;;;;;5069763;28;20027;-38
2022/08/21 19:30:18;;;;;;;5.35;1.55;;;21.90;49.30;;;;;;5069760;28;20453;-38
2022/08/21 19:32:45;;;;;;;7.60;2.85;;;21.90;49.60;;;;;;5069657;28;20033;-38
2022/08/21 19:35:14;;;;;;;8.60;1.70;;;21.90;49.60;;;;;;5067979;28;20120;-38
2022/08/21 19:37:40;;;;;;;2.35;1.23;;;21.80;49.80;;;;;;5069405;28;20365;-38
2022/08/21 19:40:07;;;;;;;6.93;2.17;;;21.80;50.40;;;;;;5069344;28;20029;-38
2022/08/21 19:42:34;;;;;;;5.78;2.35;;;21.70;50.80;;;;;;5069142;28;20542;-38
2022/08/21 19:45:01;;;;;;;5.55;2.22;;;21.70;50.80;;;;;;5069246;28;20024;-40
2022/08/21 19:47:28;;;;;;;3.75;1.50;;;21.80;50.60;;;;;;5069437;28;20017;-39
2022/08/21 19:49:58;;;;;;;7.13;1.80;;;21.70;51.10;;;;;;5069083;28;20052;-38
2022/08/21 19:52:24;;;;;;;8.20;3.03;;;21.70;51.00;;;;;;5070301;28;20161;-39
2022/08/21 19:54:50;;;;;;;4.60;1.83;;;21.80;51.00;;;;;;5069877;28;20493;-39
2022/08/21 19:57:16;;;;;;;13.90;2.75;;;21.70;51.20;;;;;;5069761;28;20334;-39
2022/08/21 19:59:44;;;;;;;5.07;2.70;;;21.70;51.10;;;;;;5068032;28;20069;-39
2022/08/21 20:02:11;;;;;;;4.57;1.73;;;21.70;51.20;;;;;;5069142;28;20025;-50
2022/08/21 20:04:37;;;;;;;4.82;2.00;;;21.80;51.20;;;;;;5069234;28;20028;-47
2022/08/21 20:07:04;;;;;;;4.72;1.60;;;21.70;51.30;;;;;;5069248;28;20377;-46
2022/08/21 20:09:30;;;;;;;7.38;1.77;;;21.70;51.60;;;;;;5069154;28;20035;-47
2022/08/21 20:12:00;;;;;;;8.00;2.38;;;21.60;51.70;;;;;;5055622;28;20112;-48
2022/08/21 20:14:30;;;;;;;2.85;1.75;;;21.50;51.90;;;;;;5055810;28;20029;-48
2022/08/21 20:17:00;;;;;;;3.85;1.67;;;21.50;52.20;;;;;;5055528;28;20079;-48
2022/08/21 20:19:26;;;;;;;5.93;2.00;;;21.40;52.60;;;;;;5055635;28;20033;-48
2022/08/21 20:21:53;;;;;;;4.38;2.03;;;21.50;52.70;;;;;;5055761;28;20040;-48
2022/08/21 20:24:19;;;;;;;12.32;2.55;;;21.50;53.10;;;;;;5054977;28;20025;-47
2022/08/21 20:26:46;;;;;;;6.35;2.40;;;21.40;53.70;;;;;;5056527;28;20124;-51
2022/08/21 20:29:12;;;;;;;7.68;2.00;;;21.40;53.90;;;;;;5056669;28;20071;-45
2022/08/21 20:31:37;;;;;;;8.82;2.33;;;21.30;54.80;;;;;;5055460;28;20029;-47
2022/08/21 20:34:03;;;;;;;9.05;2.22;;;21.30;55.30;;;;;;5055545;28;20021;-48
2022/08/21 20:36:29;;;;;;;8.15;2.85;;;21.30;55.60;;;;;;5055515;28;20558;-48
2022/08/21 20:38:55;;;;;;;7.88;3.00;;;21.30;56.00;;;;;;5055034;28;20025;-48
2022/08/21 20:41:23;;;;;;;6.80;2.40;;;21.30;56.20;;;;;;5055873;28;20032;-50
2022/08/21 20:43:50;;;;;;;11.57;2.92;;;21.30;56.40;;;;;;5055014;28;20040;-48
2022/08/21 20:46:20;;;;;;;7.75;3.03;;;21.30;56.60;;;;;;5054360;28;20461;-47
2022/08/21 20:48:45;;;;;;;;;;;21.30;57.00;;;;;;5055469;28;20107;-47
2022/08/21 20:51:22;;;;;;;6.60;2.38;;;21.20;57.20;;;;;;5054698;28;19944;-47
2022/08/21 20:54:15;;;;;;;7.97;2.47;;;21.20;57.50;;;;;;5055026;28;20025;-46
2022/08/21 20:57:15;;;;;;;7.28;2.65;;;21.10;58.30;;;;;;5055135;28;20492;-47
2022/08/21 20:59:55;;;;;;;6.07;2.15;;;21.10;58.60;;;;;;5054549;28;20041;-46
2022/08/21 21:02:27;;;;;;;4.90;2.47;;;21.10;58.80;;;;;;5055050;28;20491;-46
2022/08/21 21:05:02;;;;;;;9.98;3.13;;;21.00;59.20;;;;;;5053991;28;20109;-47
2022/08/21 21:07:35;;;;;;;5.97;2.65;;;21.00;59.50;;;;;;5055826;28;20013;-48
2022/08/21 21:10:04;;;;;;;8.30;2.67;;;21.00;59.60;;;;;;5056706;28;20418;-46
2022/08/21 21:12:41;;;;;;;8.40;3.47;;;20.90;60.00;;;;;;5055185;28;20025;-47
2022/08/21 21:15:15;;;;;;;7.00;2.72;;;21.00;60.10;;;;;;5053565;28;20374;-46
2022/08/21 21:17:58;;;;;;;5.82;2.47;;;20.90;60.50;;;;;;5055584;28;20025;-48
2022/08/21 21:20:57;;;;;;;7.95;2.53;;;20.80;60.80;;;;;;5055553;28;20128;-47
2022/08/21 21:23:36;;;;;;;7.70;2.90;;;20.70;61.40;;;;;;5054099;28;20437;-47
2022/08/21 21:26:13;;;;;;;4.85;2.28;;;20.60;61.80;;;;;;5054708;28;20457;-48
2022/08/21 21:28:46;;;;;;;8.85;2.95;;;20.50;62.00;;;;;;5055096;28;20396;-45
2022/08/21 21:31:11;;;;;;;12.88;2.45;;;20.60;62.20;;;;;;5056942;28;20495;-48
2022/08/21 21:33:37;;;;;;;5.53;2.00;;;20.50;62.50;;;;;;5054513;28;20103;-47
2022/08/21 21:36:34;;;;;;;5.57;2.38;;;20.40;62.80;;;;;;5054971;28;20032;-47
2022/08/21 21:39:07;;;;;;;8.65;3.05;;;20.40;63.00;;;;;;5054644;28;20112;-46
2022/08/21 21:41:43;;;;;;;7.13;3.05;;;20.40;63.30;;;;;;5054406;28;20071;-46
2022/08/21 21:44:15;;;;;;;8.75;2.58;;;20.40;63.50;;;;;;5054288;28;20036;-48
2022/08/21 21:46:58;;;;;;;7.90;3.20;;;20.30;63.60;;;;;;5054252;28;20027;-48
2022/08/21 21:50:14;;;;;;;9.45;3.53;;;20.30;63.80;;;;;;5055501;28;20449;-45
2022/08/21 21:52:45;;;;;;;9.70;2.53;;;20.30;63.80;;;;;;5053047;28;20120;-47
2022/08/21 21:55:14;;;;;;;6.55;3.00;;;20.30;64.10;;;;;;5053589;28;20021;-45
2022/08/21 21:58:07;;;;;;;8.57;2.28;;;20.30;64.40;;;;;;5055598;28;20381;-47
2022/08/21 22:00:39;;;;;;;9.23;2.88;;;20.30;64.40;;;;;;5054126;28;20401;-47
2022/08/21 22:03:19;;;;;;;8.52;3.15;;;20.30;64.80;;;;;;5054122;28;20045;-45
2022/08/21 22:05:56;;;;;;;9.25;3.00;;;20.20;65.00;;;;;;5055213;28;20021;-45
2022/08/21 22:08:51;;;;;;;14.32;4.25;;;20.30;64.90;;;;;;5055004;28;20025;-45
2022/08/21 22:11:46;;;;;;;8.70;2.75;;;20.30;64.90;;;;;;5054431;28;20061;-47
2022/08/21 22:14:17;;;;;;;9.32;3.03;;;20.20;65.20;;;;;;5054517;28;20035;-46
2022/08/21 22:16:45;;;;;;;10.00;2.78;;;20.20;65.40;;;;;;5054863;28;20045;-45
2022/08/21 22:19:36;;;;;;;5.35;2.13;;;20.20;65.50;;;;;;5053740;28;20075;-46
2022/08/21 22:22:19;;;;;;;7.47;3.60;;;20.00;65.80;;;;;;5054070;28;20397;-47
2022/08/21 22:24:52;;;;;;;8.85;2.38;;;20.00;66.10;;;;;;5053311;28;20024;-46
2022/08/21 22:27:22;;;;;;;5.13;2.22;;;19.90;66.30;;;;;;5053702;28;20032;-48
2022/08/21 22:29:53;;;;;;;12.30;3.67;;;19.80;66.60;;;;;;5053733;28;20453;-53
2022/08/21 22:32:25;;;;;;;6.32;3.33;;;19.80;66.70;;;;;;5053339;28;20414;-47
2022/08/21 22:35:11;;;;;;;5.30;2.67;;;19.80;66.90;;;;;;5053398;28;20029;-49
2022/08/21 22:37:40;;;;;;;2.78;1.95;;;19.80;67.00;;;;;;5053651;28;20033;-47
2022/08/21 22:40:09;;;;;;;5.60;2.40;;;19.70;67.20;;;;;;5053198;28;20120;-47
2022/08/21 22:42:35;;;;;;;5.70;2.40;;;19.70;67.30;;;;;;5051907;28;20064;-46
2022/08/21 22:45:04;;;;;;;3.58;2.20;;;19.70;67.50;;;;;;5053442;28;20052;-47
2022/08/21 22:47:42;;;;;;;7.40;2.55;;;19.70;67.50;;;;;;5051856;28;20021;-48
2022/08/21 22:50:30;;;;;;;5.80;2.28;;;19.70;67.40;;;;;;5053289;28;20024;-47
2022/08/21 22:53:06;;;;;;;10.43;3.35;;;19.70;67.50;;;;;;5053162;28;20031;-48
2022/08/21 22:55:42;;;;;;;7.25;2.13;;;19.70;67.50;;;;;;5053036;28;20025;-49
2022/08/21 22:58:18;;;;;;;9.55;3.17;;;19.80;67.50;;;;;;5052783;28;20388;-47
2022/08/21 23:00:59;;;;;;;9.77;2.75;;;19.80;67.40;;;;;;5053343;28;20021;-47
2022/08/21 23:03:45;;;;;;;6.30;2.47;;;19.80;67.30;;;;;;5053306;28;20107;-49
2022/08/21 23:06:31;;;;;;;5.80;2.67;;;19.80;67.20;;;;;;5053161;28;20148;-49
2022/08/21 23:08:58;;;;;;;4.28;2.28;;;19.80;67.30;;;;;;5052960;28;20029;-47
2022/08/21 23:11:39;;;;;;;3.55;1.90;;;19.80;67.20;;;;;;5053804;28;20114;-46
2022/08/21 23:14:05;;;;;;;19.40;2.83;;;19.80;67.30;;;;;;5053123;28;20473;-46
2022/08/21 23:16:40;;;;;;;4.05;2.25;;;19.80;67.40;;;;;;5052877;28;20151;-47
2022/08/21 23:19:24;;;;;;;4.05;1.60;;;19.70;67.70;;;;;;5053612;28;20033;-48
2022/08/21 23:21:56;;;;;;;6.53;3.22;;;19.60;67.90;;;;;;5055576;28;20108;-48
2022/08/21 23:24:31;;;;;;;8.75;2.00;;;19.60;68.10;;;;;;5051542;28;20028;-47
2022/08/21 23:27:14;;;;;;;4.15;2.42;;;19.60;68.20;;;;;;5053002;28;20017;-47
2022/08/21 23:29:49;;;;;;;7.43;2.22;;;19.60;68.30;;;;;;5053193;28;20441;-49
2022/08/21 23:32:37;;;;;;;8.48;2.40;;;19.50;68.40;;;;;;5052749;28;20072;-47
2022/08/21 23:35:20;;;;;;;6.80;2.42;;;19.50;68.50;;;;;;5052758;28;20021;-47
2022/08/21 23:38:14;;;;;;;5.22;2.40;;;19.50;68.70;;;;;;5053115;28;20040;-46
2022/08/21 23:40:55;;;;;;;4.95;2.00;;;19.50;68.80;;;;;;5052449;28;20032;-47
2022/08/21 23:43:40;;;;;;;8.35;2.63;;;19.50;68.80;;;;;;5052945;28;20500;-48
2022/08/21 23:46:20;;;;;;;5.75;2.28;;;19.50;68.80;;;;;;5054588;28;20499;-46
2022/08/21 23:49:01;;;;;;;3.10;2.10;;;19.40;69.20;;;;;;5056804;28;20414;-46
2022/08/21 23:51:56;;;;;;;8.45;2.60;;;19.40;69.50;;;;;;5056674;28;20491;-45
2022/08/21 23:54:45;;;;;;;5.60;2.30;;;19.30;69.70;;;;;;5054452;28;20041;-47
2022/08/21 23:57:38;;;;;;;9.48;2.47;;;19.30;70.00;;;;;;5056540;28;20031;-46
